sensor_id;sensor_type;location;lat;lon;timestamp;pressure;altitude;pressure_sealevel;temperature;humidity
59588;BME280;45412;54.472;18.464;2023-09-19T00:03:01;98851.52;;;20.12;75.04
59588;BME280;45412;54.472;18.464;2023-09-19T00:05:48;98852.98;;;20.15;74.78
59588;BME280;45412;54.472;18.464;2023-09-19T00:08:36;98855.09;;;20.18;74.61
59588;BME280;45412;54.472;18.464;2023-09-19T00:11:23;98852.91;;;20.19;74.63
59588;BME280;45412;54.472;18.464;2023-09-19T00:14:12;98855.72;;;20.19;74.59
59588;BME280;45412;54.472;18.464;2023-09-19T00:17:00;98858.29;;;20.18;74.56
59588;BME280;45412;54.472;18.464;2023-09-19T00:19:47;98857.00;;;20.18;74.40
59588;BME280;45412;54.472;18.464;2023-09-19T00:22:40;98859.99;;;20.21;74.11
59588;BME280;45412;54.472;18.464;2023-09-19T00:25:28;98856.02;;;20.24;73.91
59588;BME280;45412;54.472;18.464;2023-09-19T00:28:14;98854.61;;;20.25;73.90
59588;BME280;45412;54.472;18.464;2023-09-19T00:31:00;98852.52;;;20.26;74.58
59588;BME280;45412;54.472;18.464;2023-09-19T00:33:47;98855.89;;;20.24;75.54
59588;BME280;45412;54.472;18.464;2023-09-19T00:36:34;98852.23;;;20.14;76.56
59588;BME280;45412;54.472;18.464;2023-09-19T00:39:20;98852.36;;;20.11;77.11
59588;BME280;45412;54.472;18.464;2023-09-19T00:42:07;98851.66;;;20.06;77.41
59588;BME280;45412;54.472;18.464;2023-09-19T00:44:54;98845.40;;;20.00;78.00
59588;BME280;45412;54.472;18.464;2023-09-19T00:47:43;98857.59;;;19.96;78.57
59588;BME280;45412;54.472;18.464;2023-09-19T00:50:30;98858.62;;;19.90;78.75
59588;BME280;45412;54.472;18.464;2023-09-19T00:53:22;98859.49;;;19.87;79.27
59588;BME280;45412;54.472;18.464;2023-09-19T00:56:09;98861.41;;;19.83;79.97
59588;BME280;45412;54.472;18.464;2023-09-19T00:58:56;98853.19;;;19.82;79.78
59588;BME280;45412;54.472;18.464;2023-09-19T01:01:43;98848.49;;;19.80;79.85
59588;BME280;45412;54.472;18.464;2023-09-19T01:04:32;98849.77;;;19.79;80.71
59588;BME280;45412;54.472;18.464;2023-09-19T01:07:18;98843.86;;;19.73;81.78
59588;BME280;45412;54.472;18.464;2023-09-19T01:10:06;98844.11;;;19.66;83.17
59588;BME280;45412;54.472;18.464;2023-09-19T01:13:11;98836.27;;;19.55;84.59
59588;BME280;45412;54.472;18.464;2023-09-19T01:16:31;98835.65;;;19.46;85.60
59588;BME280;45412;54.472;18.464;2023-09-19T01:22:53;98836.05;;;19.29;87.04
59588;BME280;45412;54.472;18.464;2023-09-19T01:32:25;98810.31;;;19.16;89.23
59588;BME280;45412;54.472;18.464;2023-09-19T01:35:12;98812.88;;;19.14;89.29
59588;BME280;45412;54.472;18.464;2023-09-19T01:37:59;98811.67;;;19.14;89.68
59588;BME280;45412;54.472;18.464;2023-09-19T01:41:03;98815.54;;;19.12;89.83
59588;BME280;45412;54.472;18.464;2023-09-19T01:43:52;98818.32;;;19.11;89.80
59588;BME280;45412;54.472;18.464;2023-09-19T01:46:40;98820.89;;;19.12;89.80
59588;BME280;45412;54.472;18.464;2023-09-19T01:49:38;98821.47;;;19.15;89.68
59588;BME280;45412;54.472;18.464;2023-09-19T01:52:31;98818.77;;;19.17;89.72
59588;BME280;45412;54.472;18.464;2023-09-19T01:55:26;98818.11;;;19.18;89.61
59588;BME280;45412;54.472;18.464;2023-09-19T01:58:49;98824.05;;;19.19;89.38
59588;BME280;45412;54.472;18.464;2023-09-19T02:01:37;98828.56;;;19.19;89.48
59588;BME280;45412;54.472;18.464;2023-09-19T02:04:24;98826.82;;;19.17;89.69
59588;BME280;45412;54.472;18.464;2023-09-19T02:07:11;98824.92;;;19.18;89.62
59588;BME280;45412;54.472;18.464;2023-09-19T02:09:58;98825.95;;;19.17;89.67
59588;BME280;45412;54.472;18.464;2023-09-19T02:12:50;98831.89;;;19.17;89.22
59588;BME280;45412;54.472;18.464;2023-09-19T02:15:37;98831.10;;;19.17;89.11
59588;BME280;45412;54.472;18.464;2023-09-19T02:18:24;98830.02;;;19.17;88.58
59588;BME280;45412;54.472;18.464;2023-09-19T02:21:10;98825.24;;;19.17;87.84
59588;BME280;45412;54.472;18.464;2023-09-19T02:23:58;98820.06;;;19.20;87.10
59588;BME280;45412;54.472;18.464;2023-09-19T02:26:45;98818.17;;;19.20;86.46
59588;BME280;45412;54.472;18.464;2023-09-19T02:29:32;98817.95;;;19.21;86.16
59588;BME280;45412;54.472;18.464;2023-09-19T02:32:20;98814.88;;;19.18;85.89
59588;BME280;45412;54.472;18.464;2023-09-19T02:35:07;98808.07;;;19.17;85.61
59588;BME280;45412;54.472;18.464;2023-09-19T02:37:57;98805.48;;;19.15;85.35
59588;BME280;45412;54.472;18.464;2023-09-19T02:40:43;98805.33;;;19.12;85.33
59588;BME280;45412;54.472;18.464;2023-09-19T02:43:30;98808.11;;;19.10;85.35
59588;BME280;45412;54.472;18.464;2023-09-19T02:46:16;98805.95;;;19.07;85.52
59588;BME280;45412;54.472;18.464;2023-09-19T02:49:03;98806.42;;;19.01;85.84
59588;BME280;45412;54.472;18.464;2023-09-19T02:51:52;98801.69;;;18.94;86.17
59588;BME280;45412;54.472;18.464;2023-09-19T02:54:38;98790.16;;;18.92;86.59
59588;BME280;45412;54.472;18.464;2023-09-19T02:57:24;98784.16;;;18.85;87.41
59588;BME280;45412;54.472;18.464;2023-09-19T03:00:12;98779.04;;;18.78;88.23
59588;BME280;45412;54.472;18.464;2023-09-19T03:02:59;98777.89;;;18.71;89.14
59588;BME280;45412;54.472;18.464;2023-09-19T03:05:46;98767.47;;;18.63;89.82
59588;BME280;45412;54.472;18.464;2023-09-19T03:08:35;98760.77;;;18.54;91.16
59588;BME280;45412;54.472;18.464;2023-09-19T03:11:22;98752.98;;;18.45;91.82
59588;BME280;45412;54.472;18.464;2023-09-19T03:14:10;98753.13;;;18.36;93.12
59588;BME280;45412;54.472;18.464;2023-09-19T03:16:56;98738.34;;;18.25;94.39
59588;BME280;45412;54.472;18.464;2023-09-19T03:19:43;98723.36;;;18.16;95.22
59588;BME280;45412;54.472;18.464;2023-09-19T03:22:31;98726.30;;;18.08;96.20
59588;BME280;45412;54.472;18.464;2023-09-19T03:25:19;98723.58;;;17.99;96.65
59588;BME280;45412;54.472;18.464;2023-09-19T03:28:07;98717.75;;;17.94;97.34
59588;BME280;45412;54.472;18.464;2023-09-19T03:31:05;98721.58;;;17.91;97.42
59588;BME280;45412;54.472;18.464;2023-09-19T03:33:53;98723.86;;;17.87;98.04
59588;BME280;45412;54.472;18.464;2023-09-19T03:36:41;98731.67;;;17.85;98.02
59588;BME280;45412;54.472;18.464;2023-09-19T03:39:27;98733.94;;;17.83;98.58
59588;BME280;45412;54.472;18.464;2023-09-19T03:42:14;98732.89;;;17.80;98.76
59588;BME280;45412;54.472;18.464;2023-09-19T03:45:00;98734.33;;;17.78;99.00
59588;BME280;45412;54.472;18.464;2023-09-19T03:47:50;98736.17;;;17.76;99.55
59588;BME280;45412;54.472;18.464;2023-09-19T03:50:39;98733.06;;;17.74;99.61
59588;BME280;45412;54.472;18.464;2023-09-19T03:53:25;98728.55;;;17.73;99.43
59588;BME280;45412;54.472;18.464;2023-09-19T03:56:12;98726.80;;;17.73;99.35
59588;BME280;45412;54.472;18.464;2023-09-19T03:58:58;98723.83;;;17.72;99.76
59588;BME280;45412;54.472;18.464;2023-09-19T04:01:45;98716.44;;;17.71;99.69
59588;BME280;45412;54.472;18.464;2023-09-19T04:04:32;98721.16;;;17.70;99.82
59588;BME280;45412;54.472;18.464;2023-09-19T04:07:19;98720.71;;;17.70;99.69
59588;BME280;45412;54.472;18.464;2023-09-19T04:10:09;98722.03;;;17.69;99.98
59588;BME280;45412;54.472;18.464;2023-09-19T04:12:57;98720.23;;;17.65;99.99
59588;BME280;45412;54.472;18.464;2023-09-19T04:15:44;98717.51;;;17.63;100.00
59588;BME280;45412;54.472;18.464;2023-09-19T04:18:33;98710.67;;;17.60;100.00
59588;BME280;45412;54.472;18.464;2023-09-19T04:21:21;98707.44;;;17.57;100.00
59588;BME280;45412;54.472;18.464;2023-09-19T04:24:07;98695.25;;;17.54;100.00
59588;BME280;45412;54.472;18.464;2023-09-19T04:26:54;98697.59;;;17.57;100.00
59588;BME280;45412;54.472;18.464;2023-09-19T04:29:42;98692.94;;;17.56;100.00
59588;BME280;45412;54.472;18.464;2023-09-19T04:32:29;98697.81;;;17.54;100.00
59588;BME280;45412;54.472;18.464;2023-09-19T04:35:16;98698.42;;;17.52;100.00
59588;BME280;45412;54.472;18.464;2023-09-19T04:38:02;98693.86;;;17.51;100.00
59588;BME280;45412;54.472;18.464;2023-09-19T04:40:49;98702.88;;;17.51;100.00
59588;BME280;45412;54.472;18.464;2023-09-19T04:43:35;98705.55;;;17.49;100.00
59588;BME280;45412;54.472;18.464;2023-09-19T04:46:22;98706.96;;;17.48;100.00
59588;BME280;45412;54.472;18.464;2023-09-19T04:49:08;98710.70;;;17.49;100.00
59588;BME280;45412;54.472;18.464;2023-09-19T04:51:55;98720.29;;;17.48;100.00
59588;BME280;45412;54.472;18.464;2023-09-19T04:54:41;98724.23;;;17.46;100.00
59588;BME280;45412;54.472;18.464;2023-09-19T04:57:28;98734.78;;;17.45;100.00
59588;BME280;45412;54.472;18.464;2023-09-19T05:00:20;98734.95;;;17.45;100.00
59588;BME280;45412;54.472;18.464;2023-09-19T05:03:10;98743.23;;;17.45;100.00
59588;BME280;45412;54.472;18.464;2023-09-19T05:05:56;98744.14;;;17.45;100.00
59588;BME280;45412;54.472;18.464;2023-09-19T05:08:43;98745.38;;;17.45;100.00
59588;BME280;45412;54.472;18.464;2023-09-19T05:11:29;98744.12;;;17.45;100.00
59588;BME280;45412;54.472;18.464;2023-09-19T05:14:16;98745.27;;;17.43;100.00
59588;BME280;45412;54.472;18.464;2023-09-19T05:17:02;98740.75;;;17.41;100.00
59588;BME280;45412;54.472;18.464;2023-09-19T05:19:50;98730.48;;;17.38;100.00
59588;BME280;45412;54.472;18.464;2023-09-19T05:22:38;98728.55;;;17.35;100.00
59588;BME280;45412;54.472;18.464;2023-09-19T05:25:36;98730.72;;;17.32;100.00
59588;BME280;45412;54.472;18.464;2023-09-19T05:28:23;98740.34;;;17.30;100.00
59588;BME280;45412;54.472;18.464;2023-09-19T05:31:09;98750.95;;;17.28;100.00
59588;BME280;45412;54.472;18.464;2023-09-19T05:33:55;98763.73;;;17.26;100.00
59588;BME280;45412;54.472;18.464;2023-09-19T05:36:42;98765.77;;;17.21;100.00
59588;BME280;45412;54.472;18.464;2023-09-19T05:39:29;98770.35;;;17.23;100.00
59588;BME280;45412;54.472;18.464;2023-09-19T05:42:15;98772.73;;;17.23;100.00
59588;BME280;45412;54.472;18.464;2023-09-19T05:45:01;98776.52;;;17.24;100.00
59588;BME280;45412;54.472;18.464;2023-09-19T05:47:50;98776.47;;;17.23;100.00
59588;BME280;45412;54.472;18.464;2023-09-19T05:50:37;98774.02;;;17.26;100.00
59588;BME280;45412;54.472;18.464;2023-09-19T05:53:24;98767.40;;;17.27;100.00
59588;BME280;45412;54.472;18.464;2023-09-19T05:56:11;98771.77;;;17.29;100.00
59588;BME280;45412;54.472;18.464;2023-09-19T05:58:59;98767.11;;;17.31;100.00
59588;BME280;45412;54.472;18.464;2023-09-19T06:01:46;98765.73;;;17.33;100.00
59588;BME280;45412;54.472;18.464;2023-09-19T06:04:33;98771.25;;;17.36;100.00
59588;BME280;45412;54.472;18.464;2023-09-19T06:07:21;98771.01;;;17.38;100.00
59588;BME280;45412;54.472;18.464;2023-09-19T06:10:14;98771.81;;;17.40;100.00
59588;BME280;45412;54.472;18.464;2023-09-19T06:13:03;98759.96;;;17.39;100.00
59588;BME280;45412;54.472;18.464;2023-09-19T06:15:52;98755.84;;;17.46;100.00
59588;BME280;45412;54.472;18.464;2023-09-19T06:18:39;98753.89;;;17.50;100.00
59588;BME280;45412;54.472;18.464;2023-09-19T06:21:26;98753.59;;;17.62;100.00
59588;BME280;45412;54.472;18.464;2023-09-19T06:24:13;98756.44;;;17.79;100.00
59588;BME280;45412;54.472;18.464;2023-09-19T06:26:59;98770.48;;;18.16;100.00
59588;BME280;45412;54.472;18.464;2023-09-19T06:29:47;98768.30;;;18.61;100.00
59588;BME280;45412;54.472;18.464;2023-09-19T06:32:33;98774.42;;;18.90;100.00
59588;BME280;45412;54.472;18.464;2023-09-19T06:35:19;98773.47;;;19.05;100.00
59588;BME280;45412;54.472;18.464;2023-09-19T06:38:06;98781.80;;;18.99;100.00
59588;BME280;45412;54.472;18.464;2023-09-19T06:40:53;98781.59;;;19.06;100.00
59588;BME280;45412;54.472;18.464;2023-09-19T06:43:40;98776.09;;;19.23;99.98
59588;BME280;45412;54.472;18.464;2023-09-19T06:46:27;98782.08;;;19.37;98.97
59588;BME280;45412;54.472;18.464;2023-09-19T06:49:20;98784.15;;;19.44;98.46
59588;BME280;45412;54.472;18.464;2023-09-19T06:52:06;98781.66;;;19.50;97.83
59588;BME280;45412;54.472;18.464;2023-09-19T06:54:52;98783.72;;;19.59;96.37
59588;BME280;45412;54.472;18.464;2023-09-19T06:57:39;98781.34;;;19.75;95.64
59588;BME280;45412;54.472;18.464;2023-09-19T07:00:30;98788.61;;;20.01;94.51
59588;BME280;45412;54.472;18.464;2023-09-19T07:03:18;98790.67;;;20.08;93.74
59588;BME280;45412;54.472;18.464;2023-09-19T07:06:07;98793.55;;;20.04;92.99
59588;BME280;45412;54.472;18.464;2023-09-19T07:08:54;98786.89;;;19.89;92.69
59588;BME280;45412;54.472;18.464;2023-09-19T07:11:42;98790.40;;;19.85;92.96
59588;BME280;45412;54.472;18.464;2023-09-19T07:14:28;98786.45;;;19.86;93.06
59588;BME280;45412;54.472;18.464;2023-09-19T07:17:16;98788.08;;;19.97;93.07
59588;BME280;45412;54.472;18.464;2023-09-19T07:20:05;98785.90;;;20.05;91.98
59588;BME280;45412;54.472;18.464;2023-09-19T07:22:55;98782.80;;;20.25;91.51
59588;BME280;45412;54.472;18.464;2023-09-19T07:25:41;98785.92;;;20.75;88.68
59588;BME280;45412;54.472;18.464;2023-09-19T07:28:28;98785.92;;;21.10;86.92
59588;BME280;45412;54.472;18.464;2023-09-19T07:31:14;98788.92;;;21.26;85.10
59588;BME280;45412;54.472;18.464;2023-09-19T07:34:01;98793.70;;;21.37;84.58
59588;BME280;45412;54.472;18.464;2023-09-19T07:36:50;98794.70;;;21.43;84.04
59588;BME280;45412;54.472;18.464;2023-09-19T07:39:36;98798.92;;;21.34;83.33
59588;BME280;45412;54.472;18.464;2023-09-19T07:42:22;98799.65;;;21.16;83.63
59588;BME280;45412;54.472;18.464;2023-09-19T07:45:10;98807.92;;;20.97;83.70
59588;BME280;45412;54.472;18.464;2023-09-19T07:48:00;98811.36;;;20.79;84.91
59588;BME280;45412;54.472;18.464;2023-09-19T07:50:50;98808.64;;;20.61;85.05
59588;BME280;45412;54.472;18.464;2023-09-19T07:53:37;98813.89;;;20.37;85.42
59588;BME280;45412;54.472;18.464;2023-09-19T07:56:23;98813.50;;;20.14;86.07
59588;BME280;45412;54.472;18.464;2023-09-19T07:59:11;98810.54;;;20.05;87.08
59588;BME280;45412;54.472;18.464;2023-09-19T08:01:59;98804.98;;;20.13;87.73
59588;BME280;45412;54.472;18.464;2023-09-19T08:04:47;98809.54;;;20.56;86.93
59588;BME280;45412;54.472;18.464;2023-09-19T08:07:34;98815.80;;;21.48;83.26
59588;BME280;45412;54.472;18.464;2023-09-19T08:10:22;98809.11;;;22.78;79.00
59588;BME280;45412;54.472;18.464;2023-09-19T08:13:09;98808.16;;;23.97;73.83
59588;BME280;45412;54.472;18.464;2023-09-19T08:16:00;98810.98;;;25.42;65.50
59588;BME280;45412;54.472;18.464;2023-09-19T08:18:49;98818.69;;;26.47;61.62
59588;BME280;45412;54.472;18.464;2023-09-19T08:21:41;98825.27;;;26.17;59.21
59588;BME280;45412;54.472;18.464;2023-09-19T08:24:30;98828.82;;;25.43;59.79
59588;BME280;45412;54.472;18.464;2023-09-19T08:27:16;98833.30;;;25.04;61.49
59588;BME280;45412;54.472;18.464;2023-09-19T08:30:05;98839.39;;;25.25;61.95
59588;BME280;45412;54.472;18.464;2023-09-19T08:33:02;98845.73;;;26.07;58.39
59588;BME280;45412;54.472;18.464;2023-09-19T08:35:52;98848.00;;;26.58;55.09
59588;BME280;45412;54.472;18.464;2023-09-19T08:38:41;98851.92;;;26.44;54.89
59588;BME280;45412;54.472;18.464;2023-09-19T08:41:28;98857.99;;;26.03;55.31
59588;BME280;45412;54.472;18.464;2023-09-19T08:44:14;98863.44;;;25.68;55.93
59588;BME280;45412;54.472;18.464;2023-09-19T08:47:13;98862.48;;;25.47;55.58
59588;BME280;45412;54.472;18.464;2023-09-19T08:50:11;98863.55;;;25.71;55.07
59588;BME280;45412;54.472;18.464;2023-09-19T08:53:11;98864.73;;;26.16;54.61
59588;BME280;45412;54.472;18.464;2023-09-19T08:56:01;98855.36;;;27.14;51.61
59588;BME280;45412;54.472;18.464;2023-09-19T08:59:03;98854.48;;;27.88;50.64
59588;BME280;45412;54.472;18.464;2023-09-19T09:01:50;98857.60;;;28.76;48.17
59588;BME280;45412;54.472;18.464;2023-09-19T09:04:41;98853.91;;;29.79;44.35
59588;BME280;45412;54.472;18.464;2023-09-19T09:07:27;98860.38;;;30.44;42.24
59588;BME280;45412;54.472;18.464;2023-09-19T09:10:15;98862.45;;;30.91;41.16
59588;BME280;45412;54.472;18.464;2023-09-19T09:13:02;98865.64;;;30.89;40.22
59588;BME280;45412;54.472;18.464;2023-09-19T09:15:52;98870.16;;;29.42;41.76
59588;BME280;45412;54.472;18.464;2023-09-19T09:18:40;98873.12;;;28.11;43.67
59588;BME280;45412;54.472;18.464;2023-09-19T09:21:28;98877.45;;;27.12;45.75
59588;BME280;45412;54.472;18.464;2023-09-19T09:24:27;98873.85;;;27.18;46.06
59588;BME280;45412;54.472;18.464;2023-09-19T09:27:15;98866.89;;;28.46;44.42
59588;BME280;45412;54.472;18.464;2023-09-19T09:30:02;98874.36;;;29.92;41.13
59588;BME280;45412;54.472;18.464;2023-09-19T09:33:07;98872.77;;;29.89;40.41
59588;BME280;45412;54.472;18.464;2023-09-19T09:35:59;98882.03;;;30.01;39.84
59588;BME280;45412;54.472;18.464;2023-09-19T09:38:48;98882.20;;;29.23;40.71
59588;BME280;45412;54.472;18.464;2023-09-19T09:41:42;98887.49;;;28.42;42.77
59588;BME280;45412;54.472;18.464;2023-09-19T09:44:29;98888.30;;;28.37;43.47
59588;BME280;45412;54.472;18.464;2023-09-19T09:50:36;98886.06;;;27.71;44.84
59588;BME280;45412;54.472;18.464;2023-09-19T09:53:37;98884.95;;;28.05;44.51
59588;BME280;45412;54.472;18.464;2023-09-19T09:56:24;98891.39;;;28.25;43.98
59588;BME280;45412;54.472;18.464;2023-09-19T09:59:10;98891.74;;;27.42;44.93
59588;BME280;45412;54.472;18.464;2023-09-19T10:02:04;98901.55;;;26.65;46.43
59588;BME280;45412;54.472;18.464;2023-09-19T10:04:52;98909.11;;;25.89;48.69
59588;BME280;45412;54.472;18.464;2023-09-19T10:07:50;98906.62;;;24.89;50.65
59588;BME280;45412;54.472;18.464;2023-09-19T10:10:57;98915.45;;;24.01;53.09
59588;BME280;45412;54.472;18.464;2023-09-19T10:13:51;98923.38;;;23.73;53.61
59588;BME280;45412;54.472;18.464;2023-09-19T10:16:47;98917.73;;;24.44;53.38
59588;BME280;45412;54.472;18.464;2023-09-19T10:19:50;98912.47;;;26.45;46.52
59588;BME280;45412;54.472;18.464;2023-09-19T10:22:43;98905.52;;;28.51;42.44
59588;BME280;45412;54.472;18.464;2023-09-19T10:25:31;98911.70;;;30.40;37.76
59588;BME280;45412;54.472;18.464;2023-09-19T10:28:19;98917.54;;;31.42;35.67
59588;BME280;45412;54.472;18.464;2023-09-19T10:31:10;98910.61;;;31.53;34.74
59588;BME280;45412;54.472;18.464;2023-09-19T10:34:02;98909.39;;;31.55;34.26
59588;BME280;45412;54.472;18.464;2023-09-19T10:36:51;98907.97;;;32.15;33.64
59588;BME280;45412;54.472;18.464;2023-09-19T10:39:39;98919.92;;;31.27;34.44
59588;BME280;45412;54.472;18.464;2023-09-19T10:42:26;98925.05;;;29.83;36.53
59588;BME280;45412;54.472;18.464;2023-09-19T10:45:17;98917.62;;;29.78;37.26
59588;BME280;45412;54.472;18.464;2023-09-19T10:48:06;98919.47;;;30.28;36.97
59588;BME280;45412;54.472;18.464;2023-09-19T10:51:06;98922.64;;;31.04;35.59
59588;BME280;45412;54.472;18.464;2023-09-19T10:54:08;98921.32;;;31.72;33.46
59588;BME280;45412;54.472;18.464;2023-09-19T10:56:59;98933.52;;;30.50;34.60
59588;BME280;45412;54.472;18.464;2023-09-19T11:00:08;98939.80;;;29.45;36.36
59588;BME280;45412;54.472;18.464;2023-09-19T11:03:21;98942.79;;;28.63;37.70
59588;BME280;45412;54.472;18.464;2023-09-19T11:06:19;98943.13;;;28.09;38.58
59588;BME280;45412;54.472;18.464;2023-09-19T11:09:06;98944.09;;;27.75;39.19
59588;BME280;45412;54.472;18.464;2023-09-19T11:12:01;98946.11;;;27.56;39.54
59588;BME280;45412;54.472;18.464;2023-09-19T11:14:48;98943.60;;;27.88;39.05
59588;BME280;45412;54.472;18.464;2023-09-19T11:17:43;98942.10;;;28.32;38.69
59588;BME280;45412;54.472;18.464;2023-09-19T11:20:37;98934.49;;;28.49;38.14
59588;BME280;45412;54.472;18.464;2023-09-19T11:23:27;98935.86;;;27.97;39.05
59588;BME280;45412;54.472;18.464;2023-09-19T11:26:40;98931.84;;;27.57;40.21
59588;BME280;45412;54.472;18.464;2023-09-19T11:29:30;98944.44;;;27.10;40.92
59588;BME280;45412;54.472;18.464;2023-09-19T11:36:14;98947.62;;;25.82;44.43
59588;BME280;45412;54.472;18.464;2023-09-19T11:39:01;98946.77;;;25.21;46.09
59588;BME280;45412;54.472;18.464;2023-09-19T11:41:53;98954.50;;;24.88;47.08
59588;BME280;45412;54.472;18.464;2023-09-19T11:44:42;98966.31;;;24.75;47.74
59588;BME280;45412;54.472;18.464;2023-09-19T11:47:31;98966.41;;;24.68;47.98
59588;BME280;45412;54.472;18.464;2023-09-19T11:50:20;98964.04;;;24.59;47.55
59588;BME280;45412;54.472;18.464;2023-09-19T11:53:06;98972.50;;;24.37;47.57
59588;BME280;45412;54.472;18.464;2023-09-19T11:55:56;98977.10;;;24.27;47.86
59588;BME280;45412;54.472;18.464;2023-09-19T11:58:45;98978.29;;;24.08;47.80
59588;BME280;45412;54.472;18.464;2023-09-19T12:01:33;98988.27;;;23.94;48.11
59588;BME280;45412;54.472;18.464;2023-09-19T12:04:33;98989.13;;;23.65;47.07
59588;BME280;45412;54.472;18.464;2023-09-19T12:07:19;98987.94;;;23.42;47.74
59588;BME280;45412;54.472;18.464;2023-09-19T12:10:06;98996.66;;;23.12;48.55
59588;BME280;45412;54.472;18.464;2023-09-19T12:12:57;98997.30;;;22.86;49.14
59588;BME280;45412;54.472;18.464;2023-09-19T12:15:45;98999.95;;;22.72;49.58
59588;BME280;45412;54.472;18.464;2023-09-19T12:18:33;98997.47;;;22.59;48.96
59588;BME280;45412;54.472;18.464;2023-09-19T12:21:27;98996.92;;;22.59;48.84
59588;BME280;45412;54.472;18.464;2023-09-19T12:24:14;98999.27;;;22.49;48.47
59588;BME280;45412;54.472;18.464;2023-09-19T12:27:05;98999.23;;;22.58;48.26
59588;BME280;45412;54.472;18.464;2023-09-19T12:29:53;99001.05;;;22.75;47.91
59588;BME280;45412;54.472;18.464;2023-09-19T12:32:52;99005.66;;;22.93;47.45
59588;BME280;45412;54.472;18.464;2023-09-19T12:35:39;99004.48;;;22.98;47.15
59588;BME280;45412;54.472;18.464;2023-09-19T12:38:26;99010.48;;;23.15;46.88
59588;BME280;45412;54.472;18.464;2023-09-19T12:41:20;99009.19;;;23.40;46.61
59588;BME280;45412;54.472;18.464;2023-09-19T12:44:10;99008.55;;;23.56;46.45
59588;BME280;45412;54.472;18.464;2023-09-19T12:46:59;99009.95;;;23.46;46.24
59588;BME280;45412;54.472;18.464;2023-09-19T12:50:13;99020.02;;;23.29;46.29
59588;BME280;45412;54.472;18.464;2023-09-19T12:53:03;99025.97;;;23.27;46.13
59588;BME280;45412;54.472;18.464;2023-09-19T12:55:59;99027.16;;;23.21;45.91
59588;BME280;45412;54.472;18.464;2023-09-19T12:58:56;99024.05;;;23.26;46.41
59588;BME280;45412;54.472;18.464;2023-09-19T13:01:45;99026.21;;;23.08;46.38
59588;BME280;45412;54.472;18.464;2023-09-19T13:04:33;99025.10;;;22.98;47.01
59588;BME280;45412;54.472;18.464;2023-09-19T13:07:45;99029.72;;;22.96;47.10
59588;BME280;45412;54.472;18.464;2023-09-19T13:10:32;99027.40;;;22.86;46.51
59588;BME280;45412;54.472;18.464;2023-09-19T13:13:24;99033.09;;;22.75;46.73
59588;BME280;45412;54.472;18.464;2023-09-19T13:16:16;99030.03;;;22.69;46.68
59588;BME280;45412;54.472;18.464;2023-09-19T13:19:06;99023.84;;;22.57;46.61
59588;BME280;45412;54.472;18.464;2023-09-19T13:21:52;99026.38;;;22.44;46.99
59588;BME280;45412;54.472;18.464;2023-09-19T13:24:40;99027.87;;;22.46;47.08
59588;BME280;45412;54.472;18.464;2023-09-19T13:27:27;99021.84;;;22.44;47.25
59588;BME280;45412;54.472;18.464;2023-09-19T13:30:15;99024.94;;;22.47;47.89
59588;BME280;45412;54.472;18.464;2023-09-19T13:33:09;99022.14;;;22.42;47.62
59588;BME280;45412;54.472;18.464;2023-09-19T13:35:56;99028.05;;;22.40;47.42
59588;BME280;45412;54.472;18.464;2023-09-19T13:38:44;99028.80;;;22.31;47.67
59588;BME280;45412;54.472;18.464;2023-09-19T13:41:34;99035.17;;;22.15;47.73
59588;BME280;45412;54.472;18.464;2023-09-19T13:44:22;99035.59;;;22.03;48.21
59588;BME280;45412;54.472;18.464;2023-09-19T13:47:09;99042.67;;;21.93;48.08
59588;BME280;45412;54.472;18.464;2023-09-19T13:49:56;99042.92;;;21.87;48.71
59588;BME280;45412;54.472;18.464;2023-09-19T13:52:43;99043.89;;;21.83;48.98
59588;BME280;45412;54.472;18.464;2023-09-19T13:55:29;99041.92;;;21.71;49.22
59588;BME280;45412;54.472;18.464;2023-09-19T13:58:16;99046.92;;;21.64;49.65
59588;BME280;45412;54.472;18.464;2023-09-19T14:01:02;99051.50;;;21.53;50.12
59588;BME280;45412;54.472;18.464;2023-09-19T14:03:49;99054.60;;;21.45;50.44
59588;BME280;45412;54.472;18.464;2023-09-19T14:06:37;99054.27;;;21.46;50.56
59588;BME280;45412;54.472;18.464;2023-09-19T14:09:24;99057.13;;;21.37;50.71
59588;BME280;45412;54.472;18.464;2023-09-19T14:12:11;99062.48;;;21.21;50.73
59588;BME280;45412;54.472;18.464;2023-09-19T14:14:57;99068.80;;;21.00;51.51
59588;BME280;45412;54.472;18.464;2023-09-19T14:17:44;99069.79;;;20.88;52.10
59588;BME280;45412;54.472;18.464;2023-09-19T14:20:32;99065.83;;;20.95;52.66
59588;BME280;45412;54.472;18.464;2023-09-19T14:23:18;99072.35;;;21.01;52.91
59588;BME280;45412;54.472;18.464;2023-09-19T14:26:05;99072.80;;;21.07;52.77
59588;BME280;45412;54.472;18.464;2023-09-19T14:28:52;99082.29;;;21.18;53.20
59588;BME280;45412;54.472;18.464;2023-09-19T14:31:38;99079.09;;;21.40;53.45
59588;BME280;45412;54.472;18.464;2023-09-19T14:34:26;99075.48;;;21.59;53.09
59588;BME280;45412;54.472;18.464;2023-09-19T14:37:12;99078.40;;;21.65;52.68
59588;BME280;45412;54.472;18.464;2023-09-19T14:39:59;99077.19;;;21.67;52.35
59588;BME280;45412;54.472;18.464;2023-09-19T14:42:48;99080.52;;;21.60;52.15
59588;BME280;45412;54.472;18.464;2023-09-19T14:45:38;99078.87;;;21.47;52.05
59588;BME280;45412;54.472;18.464;2023-09-19T14:48:25;99083.42;;;21.28;52.38
59588;BME280;45412;54.472;18.464;2023-09-19T14:51:12;99083.99;;;21.16;52.32
59588;BME280;45412;54.472;18.464;2023-09-19T14:53:59;99079.56;;;21.09;50.72
59588;BME280;45412;54.472;18.464;2023-09-19T14:56:48;99087.48;;;21.08;51.38
59588;BME280;45412;54.472;18.464;2023-09-19T14:59:41;99088.10;;;21.08;51.43
59588;BME280;45412;54.472;18.464;2023-09-19T15:02:27;99092.90;;;21.00;51.65